Time;durP1;ratioP1;P1;durP2;ratioP2;P2;SDS_P1;SDS_P2;PMS_P1;PMS_P2;Temp;Humidity;BMP_temperature;BMP_pressure;BME280_temperature;BME280_humidity;BME280_pressure;Samples;Min_cycle;Max_cycle;Signal;HPM_P1;HPM_P2
2023/01/03 00:01:11;;;;;;;1.60;0.88;;;2.90;99.90;;;;;;5018946;28;20041;-79
2023/01/03 00:03:38;;;;;;;1.27;1.00;;;2.90;99.90;;;;;;5001231;28;20358;-78
2023/01/03 00:06:05;;;;;;;1.27;0.90;;;2.90;99.90;;;;;;5019017;28;20497;-79
2023/01/03 00:08:31;;;;;;;1.45;1.30;;;2.90;99.90;;;;;;5018421;28;20053;-78
2023/01/03 00:10:58;;;;;;;1.17;0.73;;;2.90;99.90;;;;;;5017784;28;20053;-79
2023/01/03 00:13:25;;;;;;;0.63;0.60;;;2.90;99.90;;;;;;5010068;28;20124;-79
2023/01/03 00:15:52;;;;;;;0.50;0.47;;;2.90;99.90;;;;;;5020162;28;20147;-79
2023/01/03 00:18:18;;;;;;;1.05;0.80;;;2.90;99.90;;;;;;5019061;28;20449;-79
2023/01/03 00:20:45;;;;;;;1.48;0.80;;;2.90;99.90;;;;;;5018654;28;20045;-79
2023/01/03 00:23:12;;;;;;;0.55;0.50;;;2.90;99.90;;;;;;5008227;28;20516;-78
2023/01/03 00:25:38;;;;;;;0.47;0.47;;;2.90;99.90;;;;;;5020854;28;20488;-78
2023/01/03 00:28:05;;;;;;;0.70;0.50;;;2.90;99.90;;;;;;5021586;28;20059;-79
2023/01/03 00:30:32;;;;;;;0.65;0.55;;;2.90;99.90;;;;;;5018815;28;20184;-78
2023/01/03 00:32:59;;;;;;;0.75;0.50;;;3.00;99.90;;;;;;5017195;28;20049;-78
2023/01/03 00:35:26;;;;;;;0.68;0.57;;;3.00;99.90;;;;;;5018375;28;20065;-78
2023/01/03 00:37:52;;;;;;;0.60;0.50;;;3.00;99.90;;;;;;5020716;28;20088;-78
2023/01/03 00:40:19;;;;;;;0.85;0.70;;;3.10;99.90;;;;;;5001100;28;20519;-78
2023/01/03 00:45:31;;;;;;;0.77;0.55;;;3.10;99.90;;;;;;5020877;28;20132;-77
2023/01/03 00:48:01;;;;;;;1.15;0.88;;;3.20;99.90;;;;;;5018242;28;20426;-78
2023/01/03 00:50:28;;;;;;;1.00;0.63;;;3.20;99.90;;;;;;5008080;28;20302;-79
2023/01/03 00:52:55;;;;;;;0.35;0.35;;;3.20;99.90;;;;;;5016164;28;20067;-78
2023/01/03 00:55:22;;;;;;;0.60;0.60;;;3.30;99.90;;;;;;5019149;28;20116;-79
2023/01/03 00:57:49;;;;;;;0.60;0.52;;;3.30;99.90;;;;;;5020152;28;20045;-78
2023/01/03 01:00:15;;;;;;;0.93;0.80;;;3.40;99.90;;;;;;5019980;28;20114;-78
2023/01/03 01:02:42;;;;;;;0.63;0.40;;;3.40;99.90;;;;;;5010545;28;20097;-79
2023/01/03 01:05:09;;;;;;;0.65;0.65;;;3.40;99.90;;;;;;5012929;28;20050;-79
2023/01/03 01:07:36;;;;;;;0.80;0.47;;;3.50;99.90;;;;;;4998763;28;20177;-79
2023/01/03 01:10:03;;;;;;;0.60;0.60;;;3.60;99.90;;;;;;5002912;28;20141;-78
2023/01/03 01:12:30;;;;;;;0.98;0.80;;;3.70;99.90;;;;;;5017368;28;20073;-78
2023/01/03 01:14:57;;;;;;;0.98;0.60;;;3.80;99.90;;;;;;5018513;28;20338;-78
2023/01/03 01:17:26;;;;;;;0.55;0.50;;;3.80;99.90;;;;;;4999119;28;20504;-78
2023/01/03 01:19:53;;;;;;;0.85;0.50;;;4.00;99.90;;;;;;5018644;28;20077;-77
2023/01/03 01:22:20;;;;;;;0.90;0.60;;;4.00;99.90;;;;;;5018169;28;20413;-80
2023/01/03 01:24:47;;;;;;;0.60;0.60;;;4.10;99.90;;;;;;5010259;28;20060;-79
2023/01/03 01:27:14;;;;;;;0.60;0.52;;;4.20;99.90;;;;;;4998671;28;20108;-78
2023/01/03 01:29:41;;;;;;;0.68;0.60;;;4.30;99.90;;;;;;5000117;28;20064;-78
2023/01/03 01:32:07;;;;;;;0.85;0.60;;;4.40;99.90;;;;;;5016621;28;20100;-79
2023/01/03 01:34:35;;;;;;;0.75;0.55;;;4.50;99.90;;;;;;5019321;28;20369;-79
2023/01/03 01:37:01;;;;;;;0.40;0.40;;;4.50;99.90;;;;;;5019440;28;20128;-79
2023/01/03 01:39:28;;;;;;;1.08;0.60;;;4.60;99.90;;;;;;5020053;28;20045;-79
2023/01/03 01:44:54;;;;;;;0.55;0.52;;;4.70;99.90;;;;;;5012777;28;20304;-79
2023/01/03 01:47:28;;;;;;;0.88;0.73;;;4.80;99.90;;;;;;4994516;28;20160;-79
2023/01/03 01:50:20;;;;;;;0.73;0.50;;;4.80;99.90;;;;;;5001190;28;20136;-79
2023/01/03 01:52:49;;;;;;;;;;;4.90;99.90;;;;;;4994604;28;20049;-79
2023/01/03 01:55:19;;;;;;;1.00;0.68;;;4.90;99.90;;;;;;5018777;28;20214;-79
2023/01/03 01:57:46;;;;;;;0.50;0.50;;;4.90;99.90;;;;;;5017520;28;20697;-79
2023/01/03 02:00:13;;;;;;;0.47;0.47;;;4.90;99.90;;;;;;5018999;28;20045;-79
2023/01/03 02:02:39;;;;;;;0.50;0.50;;;5.00;99.90;;;;;;5009789;28;20464;-78
2023/01/03 02:05:07;;;;;;;0.57;0.57;;;5.00;99.90;;;;;;5014801;28;20045;-79
2023/01/03 02:07:34;;;;;;;1.20;0.90;;;5.00;99.90;;;;;;5001061;28;20923;-78
2023/01/03 02:10:00;;;;;;;0.70;0.70;;;5.10;99.90;;;;;;5001982;28;20505;-79
2023/01/03 02:15:47;;;;;;;1.35;0.60;;;5.10;99.90;;;;;;5017067;28;20433;-79
2023/01/03 02:18:36;;;;;;;0.57;0.57;;;5.20;99.90;;;;;;5016152;28;20706;-78
2023/01/03 02:21:33;;;;;;;1.02;0.80;;;5.20;99.90;;;;;;5016755;28;20049;-79
2023/01/03 02:24:25;;;;;;;0.93;0.70;;;5.30;99.90;;;;;;5015956;28;20124;-79
2023/01/03 02:27:11;;;;;;;1.10;0.60;;;5.30;99.90;;;;;;4980228;28;20542;-78
2023/01/03 02:30:04;;;;;;;0.63;0.52;;;5.30;99.90;;;;;;5016643;28;20168;-78
2023/01/03 02:32:36;;;;;;;0.93;0.68;;;5.30;99.90;;;;;;5006593;28;20042;-77
2023/01/03 02:35:16;;;;;;;0.77;0.65;;;5.40;99.90;;;;;;4987304;28;20081;-78
2023/01/03 02:37:53;;;;;;;1.05;0.80;;;5.40;99.90;;;;;;5002679;28;20068;-78
2023/01/03 02:40:25;;;;;;;0.73;0.70;;;5.50;99.90;;;;;;5001820;28;20077;-78
2023/01/03 02:43:20;;;;;;;1.07;0.73;;;5.60;99.90;;;;;;5016395;28;20038;-78
2023/01/03 02:46:12;;;;;;;0.85;0.70;;;5.70;99.90;;;;;;5000466;28;20306;-78
2023/01/03 02:49:06;;;;;;;0.52;0.52;;;5.70;99.90;;;;;;5002333;28;20591;-78
2023/01/03 02:51:36;;;;;;;1.65;0.70;;;5.80;99.90;;;;;;5022947;28;20535;-78
2023/01/03 02:54:03;;;;;;;1.02;0.80;;;5.90;99.90;;;;;;4993554;28;20051;-78
2023/01/03 02:56:36;;;;;;;0.85;0.65;;;5.90;99.90;;;;;;5027336;28;20077;-78
2023/01/03 02:59:06;;;;;;;1.52;0.95;;;6.00;99.90;;;;;;5026671;28;20110;-78
2023/01/03 03:01:33;;;;;;;1.50;0.90;;;6.00;99.90;;;;;;5009468;28;20560;-78
2023/01/03 03:03:59;;;;;;;0.90;0.63;;;6.10;99.90;;;;;;5021978;28;20049;-78
2023/01/03 03:06:41;;;;;;;0.75;0.75;;;6.10;99.90;;;;;;5014226;28;20044;-78
2023/01/03 03:09:07;;;;;;;1.10;0.80;;;6.20;99.90;;;;;;5008481;28;20046;-78
2023/01/03 03:14:29;;;;;;;0.98;0.55;;;6.30;99.90;;;;;;5024636;28;20050;-80
2023/01/03 03:16:59;;;;;;;0.73;0.60;;;6.30;99.90;;;;;;5011146;28;20049;-78
2023/01/03 03:25:34;;;;;;;0.60;0.55;;;6.30;99.90;;;;;;5007428;28;20127;-80
2023/01/03 03:30:53;;;;;;;0.77;0.75;;;6.40;99.90;;;;;;5018926;28;20041;-80
2023/01/03 03:33:20;;;;;;;0.80;0.60;;;6.40;99.90;;;;;;5006207;28;20136;-80
2023/01/03 03:36:07;;;;;;;1.15;0.77;;;6.40;99.90;;;;;;4993157;28;20049;-80
2023/01/03 03:38:36;;;;;;;0.70;0.60;;;6.40;99.90;;;;;;5027286;28;20076;-80
2023/01/03 03:47:43;;;;;;;1.27;0.80;;;6.40;99.90;;;;;;4965451;28;20786;-77
2023/01/03 03:50:16;;;;;;;0.98;0.88;;;6.40;99.90;;;;;;5016055;28;20053;-80
2023/01/03 03:52:44;;;;;;;2.03;1.10;;;6.40;99.90;;;;;;5026169;28;20075;-80
2023/01/03 03:55:16;;;;;;;0.95;0.73;;;6.50;99.90;;;;;;5010387;28;20072;-78
2023/01/03 03:57:46;;;;;;;0.82;0.60;;;6.50;99.90;;;;;;5009403;28;20049;-80
2023/01/03 04:00:20;;;;;;;1.33;1.00;;;6.60;99.90;;;;;;5007055;28;20487;-80
2023/01/03 04:02:47;;;;;;;1.13;1.02;;;6.60;99.90;;;;;;4997746;28;20046;-78
2023/01/03 04:05:17;;;;;;;1.17;0.93;;;6.60;99.90;;;;;;5024668;28;20700;-80
2023/01/03 04:07:43;;;;;;;1.00;0.90;;;6.60;99.90;;;;;;5025173;28;20133;-78
2023/01/03 04:10:10;;;;;;;1.10;0.80;;;6.60;99.90;;;;;;5026432;28;20098;-78
2023/01/03 04:12:37;;;;;;;0.57;0.57;;;6.70;99.90;;;;;;5008624;28;20053;-78
2023/01/03 04:15:05;;;;;;;1.08;0.60;;;6.70;99.90;;;;;;5025229;28;20476;-78
2023/01/03 04:17:32;;;;;;;1.00;0.60;;;6.80;99.90;;;;;;5013271;28;20052;-78
2023/01/03 04:19:59;;;;;;;1.17;0.70;;;6.80;99.90;;;;;;5014081;28;20140;-78
2023/01/03 04:22:26;;;;;;;0.98;0.70;;;6.90;99.90;;;;;;5009675;28;20080;-77
2023/01/03 04:24:54;;;;;;;0.75;0.68;;;6.90;99.90;;;;;;5025149;28;20128;-78
2023/01/03 04:27:20;;;;;;;1.30;0.60;;;6.90;99.90;;;;;;5022000;28;20104;-78
2023/01/03 04:29:47;;;;;;;1.05;0.63;;;6.90;99.90;;;;;;5007255;28;20072;-78
2023/01/03 04:32:14;;;;;;;0.80;0.77;;;6.90;99.90;;;;;;5008413;28;20053;-78
2023/01/03 04:34:41;;;;;;;0.70;0.50;;;6.90;99.90;;;;;;5026088;28;20111;-78
2023/01/03 04:37:07;;;;;;;1.02;0.80;;;6.90;99.90;;;;;;5020690;28;20153;-78
2023/01/03 04:39:34;;;;;;;1.58;0.70;;;6.90;99.90;;;;;;5006521;28;20365;-78
2023/01/03 04:44:00;;;;;;;1.25;0.80;;;7.00;99.90;;;;;;5005295;28;20133;-78
2023/01/03 04:44:47;;;;;;;1.00;0.80;;;7.00;99.90;;;;;;5021897;28;20052;-78
2023/01/03 04:47:14;;;;;;;1.10;0.70;;;7.00;99.90;;;;;;5024856;28;20450;-78
2023/01/03 04:49:45;;;;;;;1.10;0.60;;;7.00;99.90;;;;;;5023686;28;20049;-78
2023/01/03 04:52:14;;;;;;;0.95;0.82;;;6.90;99.90;;;;;;5022129;28;20042;-78
2023/01/03 04:54:41;;;;;;;2.70;1.20;;;6.90;99.90;;;;;;5023343;28;20054;-78
2023/01/03 04:57:08;;;;;;;1.00;0.80;;;6.90;99.90;;;;;;5025949;28;20042;-78
2023/01/03 04:59:35;;;;;;;1.25;1.00;;;6.80;99.90;;;;;;5026244;28;20037;-79
2023/01/03 05:02:02;;;;;;;0.90;0.80;;;6.80;99.90;;;;;;5002937;28;20132;-78
2023/01/03 05:04:29;;;;;;;0.80;0.50;;;6.70;99.90;;;;;;5025364;28;20050;-78
2023/01/03 05:06:56;;;;;;;1.52;0.98;;;6.70;99.90;;;;;;5023186;28;20084;-78
2023/01/03 05:09:23;;;;;;;1.52;1.00;;;6.70;99.90;;;;;;5024291;28;20053;-78
2023/01/03 05:11:49;;;;;;;1.15;0.90;;;6.70;99.90;;;;;;5023707;28;20049;-78
2023/01/03 05:14:16;;;;;;;1.00;0.55;;;6.60;99.90;;;;;;5022651;28;20136;-78
2023/01/03 05:16:43;;;;;;;1.00;0.80;;;6.60;99.90;;;;;;5022985;28;20042;-78
2023/01/03 05:19:10;;;;;;;1.15;0.82;;;6.60;99.90;;;;;;5025354;28;20069;-79
2023/01/03 05:27:06;;;;;;;1.80;1.45;;;6.60;99.90;;;;;;5021099;28;20049;-77
2023/01/03 05:29:33;;;;;;;1.77;1.00;;;6.70;99.90;;;;;;4997037;28;20049;-78
2023/01/03 05:32:00;;;;;;;1.35;0.63;;;6.80;99.90;;;;;;5024024;28;20077;-77
2023/01/03 05:34:27;;;;;;;1.38;0.60;;;6.80;99.90;;;;;;5025005;28;20077;-78
2023/01/03 05:36:53;;;;;;;1.10;0.80;;;6.80;99.90;;;;;;5023806;28;20412;-78
2023/01/03 05:39:20;;;;;;;1.17;0.60;;;6.90;99.90;;;;;;5023420;28;20500;-78
2023/01/03 05:41:59;;;;;;;2.30;1.05;;;6.90;99.90;;;;;;5017897;28;20128;-78
2023/01/03 05:44:30;;;;;;;1.05;0.80;;;6.90;99.90;;;;;;5023644;28;20423;-77
2023/01/03 05:46:58;;;;;;;1.45;0.80;;;7.00;99.90;;;;;;5019199;28;20053;-77
2023/01/03 05:49:25;;;;;;;0.93;0.75;;;7.00;99.90;;;;;;5015332;28;20065;-77
2023/01/03 05:51:52;;;;;;;1.25;0.90;;;7.00;99.90;;;;;;5020970;28;20128;-77
2023/01/03 05:54:19;;;;;;;1.73;0.80;;;7.00;99.90;;;;;;5001756;28;20050;-78
2023/01/03 05:56:46;;;;;;;1.65;0.70;;;7.00;99.90;;;;;;5018698;28;20640;-78
2023/01/03 05:59:13;;;;;;;1.08;0.63;;;7.00;99.90;;;;;;5023744;28;20095;-78
2023/01/03 06:01:40;;;;;;;0.50;0.50;;;7.00;99.90;;;;;;5017359;28;20119;-78
2023/01/03 06:04:07;;;;;;;1.10;0.70;;;7.00;99.90;;;;;;5011965;28;20147;-77
2023/01/03 06:06:33;;;;;;;0.98;0.60;;;7.00;99.90;;;;;;4984240;28;20053;-77
2023/01/03 06:09:00;;;;;;;1.10;0.73;;;7.00;99.90;;;;;;5016486;28;20049;-78
2023/01/03 06:11:27;;;;;;;0.88;0.75;;;7.10;99.90;;;;;;5017715;28;20134;-78
2023/01/03 06:13:54;;;;;;;0.88;0.43;;;7.10;99.90;;;;;;5013894;28;20455;-78
2023/01/03 06:19:06;;;;;;;0.43;0.43;;;7.10;99.90;;;;;;4995288;28;20122;-79
2023/01/03 06:21:33;;;;;;;0.90;0.70;;;7.10;99.90;;;;;;5011369;28;20057;-78
2023/01/03 06:23:59;;;;;;;2.08;0.80;;;7.10;99.90;;;;;;5006617;28;20064;-77
2023/01/03 06:26:26;;;;;;;1.10;0.50;;;7.20;99.90;;;;;;5006179;28;20054;-79
2023/01/03 06:28:53;;;;;;;0.63;0.50;;;7.20;99.90;;;;;;5015543;28;20049;-78
2023/01/03 06:31:20;;;;;;;1.00;0.70;;;7.30;99.90;;;;;;5013611;28;20045;-78
2023/01/03 06:33:47;;;;;;;1.15;0.70;;;7.30;99.90;;;;;;5016427;28;20898;-78
2023/01/03 06:36:15;;;;;;;0.47;0.47;;;7.20;99.90;;;;;;5009779;28;20049;-78
2023/01/03 06:38:42;;;;;;;1.00;0.40;;;7.20;99.90;;;;;;5016827;28;20061;-78
2023/01/03 06:41:09;;;;;;;0.73;0.50;;;7.20;99.90;;;;;;5023049;28;20081;-76
2023/01/03 06:43:35;;;;;;;1.13;0.63;;;7.20;99.90;;;;;;5020553;28;20137;-76
2023/01/03 06:54:26;;;;;;;0.65;0.55;;;7.30;99.90;;;;;;5006103;28;20076;-76
2023/01/03 06:56:53;;;;;;;1.75;0.75;;;7.30;99.90;;;;;;5036173;28;20081;-76
2023/01/03 06:59:20;;;;;;;1.25;0.65;;;7.30;99.90;;;;;;5016189;28;20167;-75
2023/01/03 07:01:47;;;;;;;2.10;1.05;;;7.30;99.90;;;;;;4997890;28;20053;-76
2023/01/03 07:04:14;;;;;;;2.13;0.73;;;7.40;99.90;;;;;;5009280;28;20583;-75
2023/01/03 07:06:41;;;;;;;0.60;0.47;;;7.40;99.90;;;;;;4987494;28;20125;-76
2023/01/03 07:09:09;;;;;;;0.70;0.63;;;7.40;99.90;;;;;;5000897;28;20526;-76
2023/01/03 07:11:36;;;;;;;1.08;0.82;;;7.40;99.90;;;;;;5019189;28;20042;-77
2023/01/03 07:14:03;;;;;;;0.85;0.80;;;7.40;99.90;;;;;;5018461;28;20053;-77
2023/01/03 07:16:32;;;;;;;0.98;0.75;;;7.30;99.90;;;;;;5021463;28;20045;-77
2023/01/03 07:18:59;;;;;;;1.58;0.60;;;7.30;99.90;;;;;;5025611;28;20054;-76
2023/01/03 07:21:28;;;;;;;1.65;0.50;;;7.40;99.90;;;;;;5024344;28;20080;-77
2023/01/03 07:23:55;;;;;;;1.10;0.90;;;7.40;99.90;;;;;;5024188;28;20469;-75
2023/01/03 07:26:25;;;;;;;1.73;0.90;;;7.40;99.90;;;;;;5023472;28;20540;-76
2023/01/03 07:28:52;;;;;;;1.02;0.80;;;7.40;99.90;;;;;;5025102;28;20053;-76
2023/01/03 07:31:19;;;;;;;2.65;1.02;;;7.40;99.90;;;;;;5025549;28;20156;-76
2023/01/03 07:33:46;;;;;;;1.70;0.50;;;7.40;99.90;;;;;;5022827;28;20073;-76
2023/01/03 07:36:13;;;;;;;0.75;0.60;;;7.40;99.90;;;;;;5025205;28;20061;-76
2023/01/03 07:38:41;;;;;;;1.23;0.57;;;7.40;99.90;;;;;;5006124;28;20073;-76
2023/01/03 07:41:08;;;;;;;1.25;0.70;;;7.40;99.90;;;;;;4991329;28;20049;-76
2023/01/03 07:43:36;;;;;;;1.48;0.85;;;7.50;99.90;;;;;;5003591;28;20177;-76
2023/01/03 07:46:06;;;;;;;2.50;0.55;;;7.50;99.90;;;;;;5020521;28;20053;-76
2023/01/03 07:48:33;;;;;;;0.63;0.60;;;7.60;99.90;;;;;;5023067;28;20481;-76
2023/01/03 07:51:00;;;;;;;0.70;0.50;;;7.60;99.90;;;;;;5003433;28;20531;-75
2023/01/03 07:53:27;;;;;;;0.55;0.50;;;7.70;99.90;;;;;;5017133;28;20119;-76
2023/01/03 07:55:53;;;;;;;1.15;0.45;;;7.80;99.90;;;;;;5023632;28;20046;-76
2023/01/03 07:58:20;;;;;;;1.90;0.40;;;7.90;99.90;;;;;;5023988;28;20046;-76
2023/01/03 08:00:47;;;;;;;0.82;0.52;;;7.90;99.90;;;;;;5023338;28;20061;-76
2023/01/03 08:03:16;;;;;;;1.35;0.57;;;7.90;99.90;;;;;;5020912;28;20049;-76
2023/01/03 08:05:43;;;;;;;2.22;0.40;;;8.00;99.90;;;;;;5019170;28;20137;-76
2023/01/03 08:08:09;;;;;;;0.70;0.47;;;8.00;99.90;;;;;;5005280;28;20172;-76
2023/01/03 08:13:23;;;;;;;1.52;0.57;;;8.10;99.90;;;;;;5024054;28;20045;-76
2023/01/03 08:15:51;;;;;;;3.42;0.90;;;8.10;99.90;;;;;;5024610;28;20153;-76
2023/01/03 08:18:20;;;;;;;0.60;0.30;;;8.10;99.90;;;;;;5022733;28;20472;-76
2023/01/03 08:20:47;;;;;;;0.93;0.60;;;8.20;99.90;;;;;;5006194;28;20496;-76
2023/01/03 08:23:14;;;;;;;1.83;0.98;;;8.20;99.90;;;;;;5023448;28;20053;-76
2023/01/03 08:25:40;;;;;;;1.15;0.50;;;8.30;99.90;;;;;;5022580;28;20607;-76
2023/01/03 08:28:07;;;;;;;0.95;0.52;;;8.30;99.90;;;;;;5024595;28;20073;-75
2023/01/03 08:30:53;;;;;;;1.30;0.63;;;8.40;99.90;;;;;;5023341;28;20049;-76
2023/01/03 08:33:20;;;;;;;0.73;0.60;;;8.50;99.90;;;;;;5022726;28;20049;-75
2023/01/03 08:35:50;;;;;;;3.42;0.75;;;8.60;99.90;;;;;;5021817;28;20503;-75
2023/01/03 08:38:20;;;;;;;1.40;0.50;;;8.70;99.90;;;;;;5005445;28;20049;-75
2023/01/03 08:40:46;;;;;;;1.38;0.70;;;8.70;99.90;;;;;;5002140;28;20482;-75
2023/01/03 08:43:13;;;;;;;1.45;0.65;;;8.80;99.90;;;;;;5017387;28;20046;-75
2023/01/03 08:45:40;;;;;;;1.02;0.47;;;8.90;99.90;;;;;;5019205;28;20220;-75
2023/01/03 08:48:07;;;;;;;1.33;0.65;;;8.90;99.90;;;;;;5018301;28;20057;-75
2023/01/03 08:50:34;;;;;;;2.35;0.82;;;9.00;99.90;;;;;;5002806;28;20053;-75
2023/01/03 08:53:01;;;;;;;1.73;0.63;;;9.10;99.90;;;;;;5002325;28;20056;-75
2023/01/03 08:55:28;;;;;;;1.17;0.50;;;9.10;99.90;;;;;;5020412;28;20060;-76
2023/01/03 08:57:55;;;;;;;3.00;0.70;;;9.20;99.90;;;;;;5023201;28;20100;-76
2023/01/03 09:00:22;;;;;;;3.45;1.17;;;9.20;99.90;;;;;;5020478;28;20381;-77
2023/01/03 09:02:48;;;;;;;1.50;0.63;;;9.30;99.90;;;;;;5020177;28;20089;-76
2023/01/03 09:05:16;;;;;;;1.95;0.80;;;9.40;99.90;;;;;;5021588;28;20061;-76
2023/01/03 09:07:42;;;;;;;2.35;0.85;;;9.40;99.90;;;;;;5021974;28;20045;-75
2023/01/03 09:10:10;;;;;;;1.58;0.70;;;9.50;99.90;;;;;;5023680;28;20053;-76
2023/01/03 09:12:37;;;;;;;1.70;0.70;;;9.60;99.90;;;;;;5005098;28;20058;-76
2023/01/03 09:15:04;;;;;;;2.85;0.82;;;9.70;99.90;;;;;;5023171;28;20155;-76
2023/01/03 09:17:30;;;;;;;2.75;0.98;;;9.70;99.90;;;;;;5021818;28;20122;-76
2023/01/03 09:19:57;;;;;;;2.65;0.90;;;9.80;99.90;;;;;;5005832;28;20046;-76
2023/01/03 09:22:24;;;;;;;1.90;0.90;;;9.80;99.90;;;;;;5018207;28;20103;-76
2023/01/03 09:24:51;;;;;;;2.03;0.90;;;9.90;99.90;;;;;;5018626;28;20553;-76
2023/01/03 09:27:17;;;;;;;1.48;0.70;;;9.90;99.90;;;;;;5021805;28;20213;-76
2023/01/03 09:29:45;;;;;;;1.60;0.68;;;9.90;99.90;;;;;;5023710;28;20425;-76
2023/01/03 09:32:12;;;;;;;1.83;0.80;;;9.90;99.90;;;;;;5023181;28;20057;-76
2023/01/03 09:34:39;;;;;;;2.58;0.70;;;9.90;99.90;;;;;;5020986;28;20322;-75
2023/01/03 09:37:05;;;;;;;1.88;0.88;;;9.90;99.90;;;;;;5022220;28;20085;-76
2023/01/03 09:39:32;;;;;;;2.05;0.80;;;9.90;99.90;;;;;;5023505;28;20378;-76
2023/01/03 09:44:45;;;;;;;1.50;0.70;;;9.90;99.90;;;;;;5008063;28;20056;-75
2023/01/03 09:47:17;;;;;;;2.08;1.08;;;9.90;99.90;;;;;;5022399;28;20132;-76
2023/01/03 09:49:44;;;;;;;2.17;1.00;;;9.90;99.90;;;;;;5021660;28;20053;-76
2023/01/03 10:04:41;;;;;;;2.97;1.17;;;9.90;99.90;;;;;;4960131;28;20338;-76
2023/01/03 10:07:25;;;;;;;1.38;0.70;;;9.90;99.90;;;;;;5002548;28;20058;-76
2023/01/03 10:10:29;;;;;;;6.93;1.58;;;9.90;99.90;;;;;;5010729;28;20057;-75
2023/01/03 10:13:12;;;;;;;5.40;2.13;;;9.90;99.90;;;;;;5022555;28;20081;-76
2023/01/03 10:16:05;;;;;;;3.40;1.13;;;9.90;99.90;;;;;;5021046;28;20484;-76
2023/01/03 10:19:09;;;;;;;2.78;1.20;;;9.90;99.90;;;;;;5020308;28;20073;-76
2023/01/03 10:22:06;;;;;;;3.30;1.33;;;9.90;99.90;;;;;;5008266;28;20111;-76
2023/01/03 10:25:11;;;;;;;3.65;1.48;;;9.90;99.90;;;;;;5011814;28;20497;-76
2023/01/03 10:27:47;;;;;;;5.45;1.40;;;9.90;99.90;;;;;;5000569;28;20111;-76
2023/01/03 10:30:16;;;;;;;3.20;1.30;;;10.00;99.90;;;;;;5002285;28;20092;-76
2023/01/03 10:33:09;;;;;;;1.70;0.88;;;10.00;99.90;;;;;;5000042;28;20458;-76
2023/01/03 10:35:36;;;;;;;1.77;0.93;;;10.00;99.90;;;;;;5015635;28;20056;-76
2023/01/03 10:38:03;;;;;;;2.33;0.77;;;10.00;99.90;;;;;;4999524;28;20465;-76
2023/01/03 10:40:58;;;;;;;2.17;1.13;;;10.00;99.90;;;;;;5017491;28;20045;-75
2023/01/03 10:43:31;;;;;;;2.60;0.90;;;10.00;99.90;;;;;;5002427;28;20142;-76
2023/01/03 10:45:58;;;;;;;2.08;0.90;;;10.10;99.90;;;;;;5019439;28;20068;-76
2023/01/03 10:48:39;;;;;;;2.95;0.82;;;10.10;99.90;;;;;;5019749;28;20065;-76
2023/01/03 10:51:33;;;;;;;1.75;0.70;;;10.20;99.90;;;;;;5007784;28;20559;-76
2023/01/03 10:54:22;;;;;;;1.17;0.73;;;10.20;99.90;;;;;;5005730;28;20141;-76
2023/01/03 10:56:49;;;;;;;3.13;0.80;;;10.10;99.90;;;;;;5021006;28;20128;-76
2023/01/03 10:59:21;;;;;;;2.95;0.98;;;10.10;99.90;;;;;;5004282;28;20509;-76
2023/01/03 11:02:15;;;;;;;2.40;0.90;;;10.10;99.90;;;;;;4987266;28;20065;-76
2023/01/03 11:04:42;;;;;;;4.38;1.10;;;10.10;99.90;;;;;;4997717;28;20465;-76
2023/01/03 11:07:11;;;;;;;3.03;1.15;;;10.10;99.90;;;;;;5000654;28;20439;-76
2023/01/03 11:09:50;;;;;;;3.42;1.13;;;10.20;99.90;;;;;;5019580;28;20045;-76
2023/01/03 11:12:37;;;;;;;1.77;1.08;;;10.20;99.90;;;;;;5021558;28;20387;-77
2023/01/03 11:15:29;;;;;;;2.05;0.80;;;10.20;99.90;;;;;;5009055;28;20050;-76
2023/01/03 11:18:06;;;;;;;2.75;0.90;;;10.30;99.90;;;;;;5024918;28;20046;-76
2023/01/03 11:20:40;;;;;;;4.55;1.10;;;10.30;99.90;;;;;;5007472;28;20246;-76
2023/01/03 11:23:12;;;;;;;2.42;0.90;;;10.30;99.90;;;;;;5022648;28;20081;-76
2023/01/03 11:25:49;;;;;;;3.88;1.20;;;10.30;99.90;;;;;;5003912;28;20041;-76
2023/01/03 11:28:37;;;;;;;3.65;1.25;;;10.30;99.90;;;;;;5014567;28;20050;-76
2023/01/03 11:31:09;;;;;;;2.28;0.80;;;10.30;99.90;;;;;;5017879;28;20332;-76
2023/01/03 11:33:42;;;;;;;1.47;0.70;;;10.30;99.90;;;;;;5002093;28;20500;-76
2023/01/03 11:36:38;;;;;;;4.00;1.55;;;10.20;99.90;;;;;;5022214;28;20302;-76
2023/01/03 11:39:15;;;;;;;3.33;1.05;;;10.20;99.90;;;;;;5002495;28;20264;-76
2023/01/03 11:42:20;;;;;;;3.17;1.20;;;10.30;99.90;;;;;;5019305;28;20057;-76
2023/01/03 11:45:02;;;;;;;2.25;0.52;;;10.30;99.90;;;;;;5013995;28;20051;-76
2023/01/03 11:48:05;;;;;;;4.00;1.20;;;10.30;99.90;;;;;;5018999;28;20075;-75
2023/01/03 11:50:41;;;;;;;1.77;0.77;;;10.30;99.90;;;;;;5000277;28;20061;-76
2023/01/03 11:53:29;;;;;;;1.38;0.95;;;10.20;99.90;;;;;;5023036;28;20139;-76
2023/01/03 11:56:10;;;;;;;1.75;0.60;;;10.30;99.90;;;;;;5018973;28;20460;-76
2023/01/03 11:59:14;;;;;;;2.42;1.10;;;10.30;99.90;;;;;;5004450;28;20072;-76
2023/01/03 12:02:22;;;;;;;4.07;1.10;;;10.20;99.90;;;;;;4946275;28;20545;-75
2023/01/03 12:04:49;;;;;;;2.72;0.95;;;10.30;99.90;;;;;;5002695;28;20046;-75
2023/01/03 12:07:21;;;;;;;3.80;1.20;;;10.20;99.90;;;;;;5024465;28;20115;-75
2023/01/03 12:10:58;;;;;;;2.35;0.95;;;10.30;99.90;;;;;;4999624;28;20057;-75
2023/01/03 12:13:43;;;;;;;3.75;0.90;;;10.30;99.90;;;;;;5001688;28;20071;-75
2023/01/03 12:16:15;;;;;;;3.35;0.77;;;10.30;99.90;;;;;;5005937;28;20464;-75
2023/01/03 12:19:08;;;;;;;3.53;0.88;;;10.30;99.90;;;;;;5020776;28;20064;-75
2023/01/03 12:21:41;;;;;;;2.13;1.10;;;10.30;99.90;;;;;;5021760;28;20284;-75
2023/01/03 12:24:14;;;;;;;2.33;0.70;;;10.30;99.90;;;;;;4997457;28;20111;-75
2023/01/03 12:26:42;;;;;;;3.83;1.35;;;10.30;99.90;;;;;;5020444;28;20053;-75
2023/01/03 12:29:18;;;;;;;2.28;1.00;;;10.30;99.90;;;;;;5000779;28;20371;-75
2023/01/03 12:31:53;;;;;;;4.07;1.45;;;10.30;99.90;;;;;;5003862;28;20050;-76
2023/01/03 12:34:41;;;;;;;2.70;1.30;;;10.30;99.90;;;;;;5002231;28;20053;-75
2023/01/03 12:37:24;;;;;;;3.75;1.10;;;10.20;99.90;;;;;;5004986;28;20504;-75
2023/01/03 12:40:09;;;;;;;2.77;1.37;;;10.20;99.90;;;;;;5011408;28;20081;-76
2023/01/03 12:42:49;;;;;;;1.90;0.77;;;10.20;99.90;;;;;;5023965;28;20053;-75
2023/01/03 12:45:25;;;;;;;4.03;1.33;;;10.20;99.90;;;;;;4990984;28;20464;-75
2023/01/03 12:48:16;;;;;;;3.58;1.10;;;10.20;99.90;;;;;;5022090;28;20156;-76
2023/01/03 12:50:48;;;;;;;2.47;0.95;;;10.20;99.90;;;;;;5019330;28;20527;-77
2023/01/03 12:53:19;;;;;;;0.90;0.50;;;10.20;99.90;;;;;;5003503;28;20057;-76
2023/01/03 12:55:52;;;;;;;2.08;0.75;;;10.20;99.90;;;;;;5022207;28;20042;-76
2023/01/03 12:58:38;;;;;;;1.73;0.90;;;10.20;99.90;;;;;;5020807;28;20172;-77
2023/01/03 13:01:12;;;;;;;1.88;0.60;;;10.20;99.90;;;;;;5012534;28;20049;-77
2023/01/03 13:03:43;;;;;;;0.95;0.50;;;10.20;99.90;;;;;;5002200;28;20053;-77
2023/01/03 13:06:15;;;;;;;2.47;0.82;;;10.20;99.90;;;;;;5005281;28;20054;-77
2023/01/03 13:08:54;;;;;;;2.42;0.60;;;10.20;99.90;;;;;;5006178;28;20391;-77
2023/01/03 13:11:21;;;;;;;1.95;0.75;;;10.30;99.90;;;;;;5021558;28;20097;-77
2023/01/03 13:13:53;;;;;;;3.42;1.30;;;10.30;99.90;;;;;;5014564;28;20137;-77
2023/01/03 13:16:35;;;;;;;2.50;1.00;;;10.30;99.90;;;;;;5018211;28;20058;-77
2023/01/03 13:19:21;;;;;;;1.27;0.98;;;10.30;99.90;;;;;;5016480;28;20112;-76
2023/01/03 13:21:54;;;;;;;1.98;0.90;;;10.40;99.90;;;;;;5016616;28;20123;-77
2023/01/03 13:24:42;;;;;;;3.47;1.02;;;10.40;99.90;;;;;;5015032;28;20046;-77
2023/01/03 13:29:48;;;;;;;2.00;0.70;;;10.50;99.90;;;;;;5018948;28;20055;-77
2023/01/03 13:32:21;;;;;;;2.17;1.13;;;10.50;99.90;;;;;;5021798;28;20361;-76
2023/01/03 13:34:53;;;;;;;3.88;0.98;;;10.50;99.90;;;;;;5019808;28;20663;-76
2023/01/03 13:37:21;;;;;;;2.97;1.02;;;10.60;99.90;;;;;;5017924;28;20107;-76
2023/01/03 13:39:51;;;;;;;2.58;1.00;;;10.50;99.90;;;;;;5001361;28;20213;-76
2023/01/03 13:42:35;;;;;;;2.00;0.70;;;10.60;99.90;;;;;;5004739;28;20050;-76
2023/01/03 13:45:14;;;;;;;2.58;0.70;;;10.50;99.90;;;;;;5010080;28;20054;-76
2023/01/03 13:47:42;;;;;;;1.17;0.70;;;10.60;99.90;;;;;;5004084;28;20215;-77
2023/01/03 13:50:19;;;;;;;3.00;1.00;;;10.60;99.90;;;;;;5001856;28;20067;-78
2023/01/03 13:53:03;;;;;;;5.10;1.70;;;10.60;99.90;;;;;;5018743;28;20212;-74
2023/01/03 13:55:37;;;;;;;3.03;1.02;;;10.60;99.90;;;;;;4988353;28;20397;-74
2023/01/03 13:58:24;;;;;;;5.38;1.10;;;10.60;99.90;;;;;;5009454;28;20065;-75
2023/01/03 14:00:53;;;;;;;3.05;1.00;;;10.70;99.90;;;;;;5012642;28;20283;-75
2023/01/03 14:03:20;;;;;;;3.45;1.33;;;10.70;99.90;;;;;;5005214;28;20049;-75
2023/01/03 14:06:31;;;;;;;3.63;1.50;;;10.70;99.90;;;;;;5021730;28;20050;-75
2023/01/03 14:09:11;;;;;;;3.50;1.30;;;10.70;99.90;;;;;;4938972;29;20141;-75
2023/01/03 14:12:06;;;;;;;3.33;0.98;;;10.70;99.90;;;;;;4995374;28;20085;-75
2023/01/03 14:14:35;;;;;;;4.53;1.00;;;10.70;99.90;;;;;;5017837;28;20129;-75
2023/01/03 14:17:01;;;;;;;4.18;1.30;;;10.70;99.90;;;;;;5007401;28;20137;-75
2023/01/03 14:19:34;;;;;;;4.97;1.52;;;10.70;99.90;;;;;;5008594;28;20409;-76
2023/01/03 14:22:13;;;;;;;3.40;1.60;;;10.70;99.90;;;;;;4990650;28;20132;-74
2023/01/03 14:24:57;;;;;;;5.40;1.23;;;10.80;99.90;;;;;;4996178;28;20049;-74
2023/01/03 14:27:33;;;;;;;4.25;1.25;;;10.80;99.90;;;;;;5005268;28;20057;-74